Tavernes de la Valldigna, Spain
Current Conditions -  °F | °C
As of 5:00 PM on Monday 22 Dec 2014 (Local Time) from LEVC Reporting Station
Clear Clear  
Wind Chill: 14°   Ceiling: Unl
Heat Index: 14°   Visibility: 6mi
Dew Point: 10°   Wind: 7mph
Humidity: 77%   Direction: 140°SE
Pressure: 30.42"   Gusts: NA
Location:  39.07°N, 0.27°W
Report Text: LEVC 221600Z 14006KT CAVOK 14/10 Q1030 NOSIG
Loading
Personal Weather Stations






























Interactive Weather Map New forecast layout! Learn more

10-Day Weather Forecast

Advertisements
Track Severe Weather on mobile